createdAt,value
2022-11-09T00:03:33.537Z,100002.94
2022-11-09T00:08:34.372Z,100015.28
2022-11-09T00:13:37.657Z,100012.81
2022-11-09T00:18:40.269Z,100010.16
2022-11-09T00:23:41.290Z,100028.31
2022-11-09T00:28:42.654Z,100023.31
2022-11-09T00:33:48.185Z,100032.06
2022-11-09T00:38:50.805Z,100028.56
2022-11-09T00:43:52.398Z,100028.03
2022-11-09T00:48:55.785Z,100030.69
2022-11-09T00:53:58.501Z,100030.78
2022-11-09T00:58:59.322Z,100040.47
2022-11-09T01:04:01.793Z,100056.31
2022-11-09T01:09:02.766Z,100051.16
2022-11-09T01:14:05.307Z,100042.59
2022-11-09T01:19:07.686Z,100042.91
2022-11-09T01:24:08.654Z,100039.47
2022-11-09T01:29:09.508Z,100043.06
2022-11-09T01:34:11.652Z,100034.25
2022-11-09T01:39:12.801Z,100034.41
2022-11-09T01:44:15.886Z,100044.00
2022-11-09T01:49:23.925Z,100036.94
2022-11-09T01:54:30.082Z,100037.06
2022-11-09T01:59:37.175Z,100038.03
2022-11-09T02:04:44.523Z,100048.50
2022-11-09T02:09:50.448Z,100034.69
2022-11-09T02:14:55.780Z,100039.84
2022-11-09T02:19:58.918Z,100032.94
2022-11-09T02:25:01.241Z,100025.13
2022-11-09T02:30:03.635Z,100029.59
2022-11-09T02:35:05.313Z,100022.75
2022-11-09T02:40:12.868Z,100017.44
2022-11-09T02:45:13.757Z,100019.19
2022-11-09T02:50:16.166Z,100025.22
2022-11-09T02:55:18.600Z,100014.88
2022-11-09T03:00:19.941Z,100019.31
2022-11-09T03:05:20.984Z,100015.13
2022-11-09T03:10:24.076Z,100013.47
2022-11-09T03:15:25.573Z,100015.31
2022-11-09T03:20:26.442Z,100023.03
2022-11-09T03:25:29.241Z,100007.03
2022-11-09T03:30:33.154Z,100013.16
2022-11-09T03:35:34.322Z,100020.09
2022-11-09T03:40:36.977Z,100013.81
2022-11-09T03:45:38.102Z,100006.06
2022-11-09T03:50:40.597Z,100006.19
2022-11-09T03:55:42.907Z,100027.06
2022-11-09T04:00:43.863Z,100022.59
2022-11-09T04:05:44.646Z,100018.34
2022-11-09T04:10:46.931Z,100014.00
2022-11-09T04:15:47.714Z,100020.03
2022-11-09T04:20:48.587Z,100022.88
2022-11-09T04:25:50.867Z,100023.75
2022-11-09T04:30:54.671Z,100012.63
2022-11-09T04:35:55.515Z,100024.03
2022-11-09T04:41:01.518Z,100020.59
2022-11-09T04:46:02.438Z,100015.00
2022-11-09T04:51:04.660Z,100020.94
2022-11-09T04:56:08.250Z,100019.06
2022-11-09T05:01:12.103Z,100020.97
2022-11-09T05:06:30.298Z,100014.78
2022-11-09T05:11:33.386Z,100016.50
2022-11-09T05:16:35.301Z,100015.81
2022-11-09T05:21:36.135Z,100024.38
2022-11-09T05:26:41.341Z,100030.25
2022-11-09T05:31:46.475Z,100036.97
2022-11-09T05:36:50.081Z,100061.28
2022-11-09T05:41:52.256Z,100051.72
2022-11-09T05:46:53.081Z,100051.69
2022-11-09T05:51:54.121Z,100066.41
2022-11-09T05:56:56.268Z,100062.13
2022-11-09T06:01:57.395Z,100054.31
2022-11-09T06:06:58.486Z,100057.69
2022-11-09T06:12:00.702Z,100055.03
2022-11-09T06:17:01.529Z,100039.34
2022-11-09T06:22:02.354Z,100060.31
2022-11-09T06:27:04.906Z,100064.47
2022-11-09T06:32:06.513Z,100077.34
2022-11-09T06:37:07.359Z,100078.00
2022-11-09T06:42:09.567Z,100075.47
2022-11-09T06:47:10.392Z,100072.78
2022-11-09T06:52:11.252Z,100068.47
2022-11-09T06:57:13.375Z,100077.88
2022-11-09T07:02:16.913Z,100094.38
2022-11-09T07:07:17.953Z,100089.09
2022-11-09T07:12:20.160Z,100079.41
2022-11-09T07:17:20.939Z,100096.69
2022-11-09T07:22:21.964Z,100091.44
2022-11-09T07:27:27.923Z,100091.53
2022-11-09T07:33:01.838Z,100100.81
2022-11-09T07:37:49.955Z,100111.81
2022-11-09T07:42:52.103Z,100114.22
2022-11-09T07:47:56.685Z,100112.09
2022-11-09T07:52:57.814Z,100106.94
2022-11-09T07:58:01.138Z,100117.34
2022-11-09T08:03:02.311Z,100113.56
2022-11-09T08:08:05.341Z,100122.06
2022-11-09T08:13:10.591Z,100123.41
2022-11-09T08:18:14.126Z,100138.28
2022-11-09T08:23:16.206Z,100143.72
2022-11-09T08:28:18.742Z,100135.25
2022-11-09T08:33:19.896Z,100124.53
2022-11-09T08:38:21.030Z,100123.00
2022-11-09T08:43:23.326Z,100121.66
2022-11-09T08:48:24.261Z,100119.97
2022-11-09T08:53:26.940Z,100121.63
2022-11-09T08:58:29.083Z,100124.41
2022-11-09T09:03:29.826Z,100126.88
2022-11-09T09:08:30.656Z,100127.63
2022-11-09T09:13:35.078Z,100123.91
2022-11-09T09:18:38.680Z,100126.97
2022-11-09T09:23:39.480Z,100131.00
2022-11-09T09:28:41.769Z,100128.22
2022-11-09T09:33:42.579Z,100130.09
2022-11-09T09:38:43.347Z,100131.13
2022-11-09T09:43:48.984Z,100132.13
2022-11-09T09:48:54.599Z,100126.00
2022-11-09T09:54:01.735Z,100120.56
2022-11-09T09:59:08.381Z,100127.06
2022-11-09T10:04:17.983Z,100107.97
2022-11-09T10:09:28.843Z,100105.50
2022-11-09T10:14:47.843Z,100096.53
2022-11-09T10:20:03.718Z,100087.81
2022-11-09T10:25:27.873Z,100089.47
2022-11-09T10:30:35.734Z,100076.13
2022-11-09T10:35:39.007Z,100075.84
2022-11-09T10:40:45.114Z,100081.06
2022-11-09T10:46:07.862Z,100093.94
2022-11-09T10:51:34.480Z,100072.31
2022-11-09T10:57:06.710Z,100062.03
2022-11-09T11:02:47.868Z,100069.41
2022-11-09T11:08:23.059Z,100065.09
2022-11-09T11:13:42.672Z,100051.19
2022-11-09T11:19:04.624Z,100046.06
2022-11-09T11:24:24.295Z,100049.50
2022-11-09T11:29:51.705Z,100048.91
2022-11-09T11:35:17.719Z,100053.44
2022-11-09T11:40:47.130Z,100055.38
2022-11-09T11:46:15.669Z,100052.75
2022-11-09T11:51:46.605Z,100038.66
2022-11-09T11:57:15.682Z,100038.22
2022-11-09T12:03:11.861Z,100041.28
2022-11-09T12:08:44.590Z,100039.47
2022-11-09T12:14:16.729Z,100036.06
2022-11-09T12:19:47.246Z,100022.31
2022-11-09T12:25:18.187Z,100044.69
2022-11-09T12:30:49.386Z,100035.72
2022-11-09T12:36:17.048Z,100021.09
2022-11-09T12:41:39.676Z,100029.56
2022-11-09T12:47:04.425Z,100034.22
2022-11-09T12:52:28.409Z,100030.84
2022-11-09T12:57:49.723Z,100024.75
2022-11-09T13:03:21.020Z,100046.38
2022-11-09T13:08:42.216Z,100051.31
2022-11-09T13:14:33.826Z,100051.41
2022-11-09T13:19:55.357Z,100047.22
2022-11-09T13:25:47.242Z,100036.56
2022-11-09T13:31:10.793Z,100035.75
2022-11-09T13:36:30.012Z,100043.56
2022-11-09T13:41:49.207Z,100042.00
2022-11-09T13:47:23.302Z,100053.13
2022-11-09T13:52:52.084Z,100042.88
2022-11-09T13:58:20.186Z,100050.56
2022-11-09T14:03:41.036Z,100050.13
2022-11-09T14:09:02.107Z,100048.19
2022-11-09T14:14:47.920Z,100055.25
2022-11-09T14:20:20.330Z,100048.44
2022-11-09T14:25:39.765Z,100060.88
2022-11-09T14:30:59.435Z,100052.66
2022-11-09T14:36:19.842Z,100070.50
2022-11-09T14:41:39.432Z,100071.53
2022-11-09T14:46:59.172Z,100083.00
2022-11-09T14:52:27.319Z,100093.69
2022-11-09T14:57:48.752Z,100095.13
2022-11-09T15:03:26.577Z,100092.22
2022-11-09T15:08:55.279Z,100099.28
2022-11-09T15:14:23.593Z,100108.19
2022-11-09T15:19:51.380Z,100109.06
2022-11-09T15:25:24.148Z,100111.94
2022-11-09T15:30:46.737Z,100113.91
2022-11-09T15:36:20.335Z,100117.19
2022-11-09T15:41:41.468Z,100122.69
2022-11-09T15:47:02.484Z,100132.31
2022-11-09T15:52:21.426Z,100154.28
2022-11-09T15:57:42.439Z,100158.69
2022-11-09T16:03:01.520Z,100163.34
2022-11-09T16:08:21.215Z,100165.47
2022-11-09T16:13:42.175Z,100177.56
2022-11-09T16:19:01.780Z,100168.84
2022-11-09T16:24:21.165Z,100173.75
2022-11-09T16:29:41.844Z,100180.75
2022-11-09T16:35:23.818Z,100184.28
2022-11-09T16:40:42.070Z,100180.22
2022-11-09T16:46:02.845Z,100186.44
2022-11-09T16:51:22.910Z,100178.63
2022-11-09T16:56:41.976Z,100190.81
2022-11-09T17:02:02.956Z,100194.44
2022-11-09T17:07:22.395Z,100201.50
2022-11-09T17:12:41.740Z,100201.53
2022-11-09T17:18:02.183Z,100195.75
2022-11-09T17:23:21.639Z,100199.13
2022-11-09T17:28:43.100Z,100193.28
2022-11-09T17:34:04.192Z,100193.28
2022-11-09T17:39:24.382Z,100212.38
2022-11-09T17:44:43.485Z,100194.91
2022-11-09T17:50:04.225Z,100196.66
2022-11-09T17:55:23.840Z,100197.50
2022-11-09T18:00:43.058Z,100206.84
2022-11-09T18:06:03.601Z,100214.75
2022-11-09T18:11:22.767Z,100221.53
2022-11-09T18:16:41.906Z,100235.31
2022-11-09T18:22:03.347Z,100228.47
2022-11-09T18:27:29.923Z,100224.88
2022-11-09T18:32:49.967Z,100226.56
2022-11-09T18:38:13.252Z,100225.72
2022-11-09T18:43:33.862Z,100218.75
2022-11-09T18:48:54.463Z,100228.16
2022-11-09T18:54:15.318Z,100228.19
2022-11-09T18:59:37.799Z,100236.88
2022-11-09T19:04:56.884Z,100226.19
2022-11-09T19:10:17.569Z,100234.88
2022-11-09T19:15:42.418Z,100236.69
2022-11-09T19:21:02.877Z,100238.41
2022-11-09T19:26:23.702Z,100251.28
2022-11-09T19:31:44.517Z,100260.06
2022-11-09T19:37:03.590Z,100255.97
2022-11-09T19:42:24.236Z,100273.38
2022-11-09T19:47:43.988Z,100270.88
2022-11-09T19:53:03.656Z,100275.28
2022-11-09T19:58:24.527Z,100270.16
2022-11-09T20:03:44.060Z,100276.25
2022-11-09T20:09:03.310Z,100290.13
2022-11-09T20:14:24.149Z,100286.69
2022-11-09T20:19:43.526Z,100285.66
2022-11-09T20:25:03.344Z,100285.00
2022-11-09T20:30:23.825Z,100292.91
2022-11-09T20:35:46.835Z,100292.91
2022-11-09T20:41:08.818Z,100296.38
2022-11-09T20:46:35.432Z,100294.59
2022-11-09T20:51:55.398Z,100310.19
2022-11-09T20:57:14.857Z,100310.16
2022-11-09T21:02:35.866Z,100304.19
2022-11-09T21:07:55.127Z,100308.38
2022-11-09T21:13:14.448Z,100330.03
2022-11-09T21:18:35.742Z,100337.03
2022-11-09T21:24:12.413Z,100337.97
2022-11-09T21:29:49.224Z,100342.25
2022-11-09T21:35:10.662Z,100344.16
2022-11-09T21:40:29.914Z,100341.53
2022-11-09T21:45:53.984Z,100345.06
2022-11-09T21:51:14.595Z,100349.56
2022-11-09T21:56:33.991Z,100343.50
2022-11-09T22:01:53.309Z,100352.28
2022-11-09T22:07:14.003Z,100367.13
2022-11-09T22:12:51.098Z,100371.31
2022-11-09T22:18:31.383Z,100380.88
2022-11-09T22:23:51.884Z,100379.19
2022-11-09T22:29:11.197Z,100400.84
2022-11-09T22:34:30.901Z,100383.47
2022-11-09T22:39:51.316Z,100371.34
2022-11-09T22:45:11.241Z,100360.88
2022-11-09T22:50:30.495Z,100373.97
2022-11-09T22:55:54.570Z,100378.38
2022-11-09T23:01:15.739Z,100376.56
2022-11-09T23:06:35.799Z,100379.13
2022-11-09T23:11:56.425Z,100373.84
2022-11-09T23:17:29.679Z,100388.59
2022-11-09T23:22:49.736Z,100408.59
2022-11-09T23:28:12.911Z,100411.16
2022-11-09T23:33:32.164Z,100420.81
2022-11-09T23:38:51.927Z,100422.41
2022-11-09T23:44:12.664Z,100438.09
2022-11-09T23:49:32.097Z,100436.25
2022-11-09T23:54:51.263Z,100442.25
